EPPO/POZ METAR and TAF weather

Enter ICAO airport designator
Station Type Date Time Source
EPPO METAR 2019/04/18 20:30 UTC NOAA

EPPO 182030Z 06007KT CAVOK 10/M00 Q1032


Station Type Date Time Source
EPPO Decoded METAR 2019/04/18 20:30 UTC NOAA

Poznan, Poland (EPPO) 52-25N 016-50E 92M
Apr 18, 2019 - 04:30 PM EDT / 2019.04.18 2030 UTC
Wind: from the ENE (060 degrees) at 8 MPH (7 KT):0
Visibility: greater than 7 mile(s):0
Temperature: 50 F (10 C)
Dew Point: 32 F (0 C)
Relative Humidity: 49%
Pressure (altimeter): 30.47 in. Hg (1032 hPa)
ob: EPPO 182030Z 06007KT CAVOK 10/M00 Q1032
cycle: 20

Station Type Date Time Source
EPPO TAF 2019/04/18 18:33 UTC NOAA

TAF EPPO 181730Z 1818/1918 08008KT CAVOK

Example: see airport list